Time;durP1;ratioP1;P1;durP2;ratioP2;P2;SDS_P1;SDS_P2;PMS_P1;PMS_P2;Temp;Humidity;BMP_temperature;BMP_pressure;BME280_temperature;BME280_humidity;BME280_pressure;Samples;Min_cycle;Max_cycle;Signal;HPM_P1;HPM_P2
2022/03/15 00:00:21;;;;;;;;;;;;;;;7.54;100.00;99121.84;5118783;28;19924;-60
2022/03/15 00:02:49;;;;;;;;;;;;;;;7.43;100.00;99122.53;5120167;28;19946;-59
2022/03/15 00:05:15;;;;;;;;;;;;;;;7.56;100.00;99127.75;5122993;28;19950;-59
2022/03/15 00:07:42;;;;;;;;;;;;;;;7.54;100.00;99124.53;5123000;28;19956;-60
2022/03/15 00:10:09;;;;;;;;;;;;;;;7.70;100.00;99138.31;5119232;28;19981;-60
2022/03/15 00:12:35;;;;;;;;;;;;;;;7.68;100.00;99133.22;5119407;28;19928;-59
2022/03/15 00:15:02;;;;;;;;;;;;;;;7.25;100.00;99129.56;5113238;28;19920;-60
2022/03/15 00:17:33;;;;;;;;;;;;;;;7.37;100.00;99139.31;5122803;28;19924;-59
2022/03/15 00:19:59;;;;;;;;;;;;;;;7.59;100.00;99137.97;5120218;28;19923;-60
2022/03/15 00:22:25;;;;;;;;;;;;;;;7.71;100.00;99145.25;5119012;28;19925;-60
2022/03/15 00:24:52;;;;;;;;;;;;;;;7.67;100.00;99138.75;5119996;28;19928;-59
2022/03/15 00:27:19;;;;;;;;;;;;;;;7.74;100.00;99139.50;5122375;28;19951;-60
2022/03/15 00:29:46;;;;;;;;;;;;;;;7.83;100.00;99141.69;5122276;28;19934;-60
2022/03/15 00:32:17;;;;;;;;;;;;;;;7.87;100.00;99132.25;5118751;28;20556;-59
2022/03/15 00:34:45;;;;;;;;;;;;;;;7.80;100.00;99138.69;5118859;28;19924;-60
2022/03/15 00:37:11;;;;;;;;;;;;;;;7.77;100.00;99126.59;5110229;28;19924;-60
2022/03/15 00:39:37;;;;;;;;;;;;;;;7.52;100.00;99126.56;5110294;28;19982;-59
2022/03/15 00:42:04;;;;;;;;;;;;;;;6.99;100.00;99126.00;5109958;28;19975;-59
2022/03/15 00:44:30;;;;;;;;;;;;;;;7.17;100.00;99130.63;5110175;28;19956;-60
2022/03/15 00:46:57;;;;;;;;;;;;;;;7.10;100.00;99129.03;5120370;28;19991;-59
2022/03/15 00:49:24;;;;;;;;;;;;;;;7.32;100.00;99125.88;5122424;28;19943;-59
2022/03/15 00:51:51;;;;;;;;;;;;;;;7.17;100.00;99112.03;5120903;28;19931;-59
2022/03/15 00:54:18;;;;;;;;;;;;;;;7.37;100.00;99112.75;5118290;28;19970;-59
2022/03/15 00:56:44;;;;;;;;;;;;;;;7.47;100.00;99109.63;5118355;28;19920;-59
2022/03/15 00:59:11;;;;;;;;;;;;;;;7.29;100.00;99114.84;5121900;28;19950;-59
2022/03/15 01:01:38;;;;;;;;;;;;;;;6.85;100.00;99097.03;5114414;28;19951;-59
2022/03/15 01:04:05;;;;;;;;;;;;;;;6.89;100.00;99093.78;5121371;28;19986;-59
2022/03/15 01:06:31;;;;;;;;;;;;;;;7.17;100.00;99105.91;5121770;28;19924;-59
2022/03/15 01:08:59;;;;;;;;;;;;;;;7.33;100.00;99098.28;5119655;28;19966;-59
2022/03/15 01:11:26;;;;;;;;;;;;;;;7.42;100.00;99099.66;5102905;28;19940;-59
2022/03/15 01:13:52;;;;;;;;;;;;;;;7.49;100.00;99102.25;5114250;28;19927;-60
2022/03/15 01:16:18;;;;;;;;;;;;;;;7.55;100.00;99102.19;5122773;28;19956;-60
2022/03/15 01:18:45;;;;;;;;;;;;;;;7.61;100.00;99098.69;5104621;28;19924;-59
2022/03/15 01:21:13;;;;;;;;;;;;;;;7.60;100.00;99097.06;5125744;28;19945;-59
2022/03/15 01:23:40;;;;;;;;;;;;;;;7.54;100.00;99092.63;5125984;28;19999;-59
2022/03/15 01:26:08;;;;;;;;;;;;;;;7.53;100.00;99096.28;5122540;28;20003;-59
2022/03/15 01:28:35;;;;;;;;;;;;;;;7.49;100.00;99092.44;5122277;28;19924;-59
2022/03/15 01:31:01;;;;;;;;;;;;;;;7.39;100.00;99096.59;5124592;28;20395;-59
2022/03/15 01:33:28;;;;;;;;;;;;;;;7.33;100.00;99089.47;5125671;28;19923;-59
2022/03/15 01:35:54;;;;;;;;;;;;;;;7.22;100.00;99085.63;5124188;28;19959;-60
2022/03/15 01:38:20;;;;;;;;;;;;;;;6.83;100.00;99077.88;5122051;28;19991;-60
2022/03/15 01:40:47;;;;;;;;;;;;;;;6.84;100.00;99079.50;5122141;28;19999;-59
2022/03/15 01:43:15;;;;;;;;;;;;;;;6.81;100.00;99077.25;5121103;28;20022;-60
2022/03/15 01:45:41;;;;;;;;;;;;;;;6.91;100.00;99080.28;5121553;28;19923;-60
2022/03/15 01:48:08;;;;;;;;;;;;;;;7.01;100.00;99075.34;5121683;28;19931;-60
2022/03/15 01:50:35;;;;;;;;;;;;;;;7.13;100.00;99068.31;5121522;28;19924;-60
2022/03/15 01:53:01;;;;;;;;;;;;;;;7.19;100.00;99062.16;5123864;28;20031;-60
2022/03/15 01:55:28;;;;;;;;;;;;;;;7.25;100.00;99061.31;5124825;28;20033;-60
2022/03/15 01:57:55;;;;;;;;;;;;;;;7.29;100.00;99057.19;5123286;28;19995;-60
2022/03/15 02:00:22;;;;;;;;;;;;;;;7.17;100.00;99063.41;5121301;28;20047;-60
2022/03/15 02:02:49;;;;;;;;;;;;;;;7.20;100.00;99055.81;5122064;28;19935;-60
2022/03/15 02:05:15;;;;;;;;;;;;;;;7.13;100.00;99056.88;5124768;28;19962;-60
2022/03/15 02:07:41;;;;;;;;;;;;;;;7.18;100.00;99055.19;5124797;28;19946;-59
2022/03/15 02:10:09;;;;;;;;;;;;;;;7.25;100.00;99050.69;5121385;28;19951;-59
2022/03/15 02:12:36;;;;;;;;;;;;;;;7.28;100.00;99050.25;5121253;28;19924;-59
2022/03/15 02:15:03;;;;;;;;;;;;;;;7.25;100.00;99052.50;5115383;28;19924;-59
2022/03/15 02:17:30;;;;;;;;;;;;;;;7.18;100.00;99049.09;5124751;28;19928;-59
2022/03/15 02:19:58;;;;;;;;;;;;;;;7.15;100.00;99046.88;5122561;28;19980;-59
2022/03/15 02:22:26;;;;;;;;;;;;;;;7.23;100.00;99047.44;5119904;28;19924;-59
2022/03/15 02:24:52;;;;;;;;;;;;;;;7.25;100.00;99041.88;5122288;28;19920;-60
2022/03/15 02:27:20;;;;;;;;;;;;;;;7.27;100.00;99045.94;5124393;28;19936;-59
2022/03/15 02:29:46;;;;;;;;;;;;;;;7.25;100.00;99048.03;5124185;28;19923;-59
2022/03/15 02:32:13;;;;;;;;;;;;;;;7.25;100.00;99040.03;5120977;28;19924;-59
2022/03/15 02:34:39;;;;;;;;;;;;;;;7.29;100.00;99041.25;5121078;28;19946;-59
2022/03/15 02:37:06;;;;;;;;;;;;;;;7.20;100.00;99034.56;5123780;28;19923;-59
2022/03/15 02:39:34;;;;;;;;;;;;;;;7.11;100.00;99037.69;5124422;28;19991;-59
2022/03/15 02:42:00;;;;;;;;;;;;;;;7.06;100.00;99036.47;5121525;28;19958;-59
2022/03/15 02:44:26;;;;;;;;;;;;;;;6.91;100.00;99032.47;5112186;28;19920;-59
2022/03/15 02:46:53;;;;;;;;;;;;;;;6.74;100.00;99026.03;5121974;28;19954;-59
2022/03/15 02:49:19;;;;;;;;;;;;;;;6.82;100.00;99029.25;5124198;28;19987;-58
2022/03/15 02:51:46;;;;;;;;;;;;;;;6.93;100.00;99017.16;5123893;28;20015;-59
2022/03/15 02:54:13;;;;;;;;;;;;;;;7.01;100.00;99022.22;5120443;28;19920;-59
2022/03/15 02:56:42;;;;;;;;;;;;;;;7.05;100.00;99020.78;5120662;28;19920;-59
2022/03/15 02:59:09;;;;;;;;;;;;;;;7.02;100.00;99023.84;5123812;28;19924;-59
2022/03/15 03:01:35;;;;;;;;;;;;;;;6.94;100.00;99032.03;5123742;28;19919;-59
2022/03/15 03:04:01;;;;;;;;;;;;;;;6.95;100.00;99023.06;5121100;28;19928;-59
2022/03/15 03:06:28;;;;;;;;;;;;;;;7.08;100.00;99028.31;5120250;28;19924;-59
2022/03/15 03:08:55;;;;;;;;;;;;;;;7.10;100.00;99030.75;5121408;28;20664;-59
2022/03/15 03:11:21;;;;;;;;;;;;;;;7.11;100.00;99033.19;5123445;28;19990;-59
2022/03/15 03:13:52;;;;;;;;;;;;;;;7.05;100.00;99020.78;5114410;28;19932;-59
2022/03/15 03:16:19;;;;;;;;;;;;;;;7.06;100.00;99020.53;5119920;27;19928;-59
2022/03/15 03:18:45;;;;;;;;;;;;;;;7.00;100.00;99015.25;5119948;28;19931;-59
2022/03/15 03:21:12;;;;;;;;;;;;;;;6.97;100.00;99021.81;5123443;28;20435;-58
2022/03/15 03:23:39;;;;;;;;;;;;;;;6.96;100.00;99014.09;5123424;28;20307;-59
2022/03/15 03:26:06;;;;;;;;;;;;;;;6.96;100.00;99014.09;5120177;28;19924;-59
2022/03/15 03:28:36;;;;;;;;;;;;;;;6.82;100.00;99008.00;5119604;28;19924;-59
2022/03/15 03:31:04;;;;;;;;;;;;;;;6.56;100.00;99004.66;5122026;28;19920;-59
2022/03/15 03:33:31;;;;;;;;;;;;;;;6.64;100.00;99001.78;5122816;28;20535;-59
2022/03/15 03:35:57;;;;;;;;;;;;;;;6.66;100.00;99007.66;5121060;28;19920;-59
2022/03/15 03:38:23;;;;;;;;;;;;;;;6.46;100.00;99005.13;5119470;28;19966;-59
2022/03/15 03:40:50;;;;;;;;;;;;;;;6.53;100.00;99012.00;5119748;28;19983;-59
2022/03/15 03:43:16;;;;;;;;;;;;;;;6.57;100.00;99008.94;5131167;28;19928;-59
2022/03/15 03:45:42;;;;;;;;;;;;;;;6.57;100.00;99012.41;5104717;28;19947;-59
2022/03/15 03:48:10;;;;;;;;;;;;;;;6.57;100.00;99008.94;5119269;28;19946;-59
2022/03/15 03:50:37;;;;;;;;;;;;;;;6.65;100.00;99012.19;5119317;28;19987;-59
2022/03/15 03:53:04;;;;;;;;;;;;;;;6.70;100.00;99019.50;5122028;28;19920;-58
2022/03/15 04:07:44;;;;;;;;;;;;;;;6.45;100.00;99019.41;5118704;28;19920;-59
2022/03/15 04:10:12;;;;;;;;;;;;;;;6.59;100.00;99022.81;5110060;28;19924;-59
2022/03/15 04:12:38;;;;;;;;;;;;;;;6.69;100.00;99018.69;5110503;28;19928;-59
2022/03/15 04:15:05;;;;;;;;;;;;;;;6.73;100.00;99014.59;5113162;28;19928;-59
2022/03/15 04:17:32;;;;;;;;;;;;;;;6.82;100.00;99001.88;5122334;28;19923;-59
2022/03/15 04:19:58;;;;;;;;;;;;;;;6.80;100.00;98999.47;5120006;28;19996;-59
2022/03/15 04:22:24;;;;;;;;;;;;;;;6.78;100.00;99000.66;5118643;28;20019;-60
2022/03/15 04:24:52;;;;;;;;;;;;;;;6.76;100.00;98998.25;5119639;28;19987;-59
2022/03/15 04:27:19;;;;;;;;;;;;;;;6.75;100.00;98988.63;5122232;28;19954;-59
2022/03/15 04:29:45;;;;;;;;;;;;;;;6.78;100.00;98985.56;5122146;28;19930;-59
2022/03/15 04:32:12;;;;;;;;;;;;;;;6.67;100.00;98996.03;5118533;28;19995;-59
2022/03/15 04:34:38;;;;;;;;;;;;;;;6.50;100.00;98990.38;5118594;28;19932;-59
2022/03/15 04:37:04;;;;;;;;;;;;;;;6.40;100.00;98993.50;5121255;28;19967;-59
2022/03/15 04:39:31;;;;;;;;;;;;;;;6.44;100.00;98993.88;5122098;28;19924;-59
2022/03/15 04:41:58;;;;;;;;;;;;;;;6.39;100.00;99002.47;5121372;28;20678;-59
2022/03/15 04:44:25;;;;;;;;;;;;;;;6.35;100.00;99000.44;5124783;28;20035;-59
2022/03/15 04:46:51;;;;;;;;;;;;;;;6.47;100.00;98994.28;5118847;28;19924;-59
2022/03/15 04:49:18;;;;;;;;;;;;;;;6.48;100.00;98995.91;5121862;28;19934;-59
2022/03/15 04:51:46;;;;;;;;;;;;;;;6.46;100.00;98992.66;5121916;28;19924;-60
2022/03/15 04:54:13;;;;;;;;;;;;;;;6.47;100.00;98999.59;5118459;28;19920;-60
2022/03/15 04:56:39;;;;;;;;;;;;;;;6.43;100.00;98987.78;5118225;28;20000;-59
2022/03/15 04:59:07;;;;;;;;;;;;;;;6.37;100.00;98988.63;5121215;28;19923;-59
2022/03/15 05:01:34;;;;;;;;;;;;;;;6.40;100.00;98982.91;5121828;28;20260;-60
2022/03/15 05:04:00;;;;;;;;;;;;;;;6.32;100.00;98979.63;5119265;28;19979;-59
2022/03/15 05:06:26;;;;;;;;;;;;;;;6.14;100.00;98969.69;5118129;28;19947;-59
2022/03/15 05:08:53;;;;;;;;;;;;;;;6.21;100.00;98973.16;5119327;28;20042;-59
2022/03/15 05:11:20;;;;;;;;;;;;;;;6.21;100.00;98970.50;5121536;28;19958;-59
2022/03/15 05:13:47;;;;;;;;;;;;;;;6.30;100.00;98971.91;5112864;28;19991;-59
2022/03/15 05:16:17;;;;;;;;;;;;;;;6.14;100.00;98968.88;5118239;28;19936;-59
2022/03/15 05:18:44;;;;;;;;;;;;;;;6.12;100.00;98966.44;5118158;28;19924;-59
2022/03/15 05:21:12;;;;;;;;;;;;;;;6.03;100.00;98970.34;5109670;28;19942;-59
2022/03/15 05:23:39;;;;;;;;;;;;;;;6.06;100.00;98972.59;5109707;28;19924;-59
2022/03/15 05:26:05;;;;;;;;;;;;;;;6.03;100.00;98969.53;5109574;28;19955;-59
2022/03/15 05:28:32;;;;;;;;;;;;;;;6.08;100.00;98965.22;5109691;28;19931;-59
2022/03/15 05:30:58;;;;;;;;;;;;;;;6.14;100.00;98968.88;5109553;28;19995;-58
2022/03/15 05:33:28;;;;;;;;;;;;;;;6.25;100.00;98963.72;5109830;28;20088;-59
2022/03/15 05:35:54;;;;;;;;;;;;;;;6.36;100.00;98970.25;5091566;28;19924;-59
2022/03/15 05:38:20;;;;;;;;;;;;;;;6.37;100.00;98962.09;5109611;28;19972;-60
2022/03/15 05:40:47;;;;;;;;;;;;;;;6.34;100.00;98949.25;5109532;28;19967;-59
2022/03/15 05:43:13;;;;;;;;;;;;;;;6.38;100.00;98945.13;5121920;28;19924;-59
2022/03/15 05:45:40;;;;;;;;;;;;;;;6.38;100.00;98961.03;5121484;28;19926;-59
2022/03/15 05:48:07;;;;;;;;;;;;;;;6.39;100.00;98953.91;5118022;28;19924;-59
2022/03/15 05:50:34;;;;;;;;;;;;;;;6.37;100.00;98951.47;5117937;28;19924;-59
2022/03/15 05:53:04;;;;;;;;;;;;;;;6.28;100.00;98957.22;5120123;28;19943;-59
2022/03/15 05:55:31;;;;;;;;;;;;;;;5.90;100.00;98950.00;5121108;28;19924;-59
2022/03/15 05:57:57;;;;;;;;;;;;;;;5.80;100.00;98954.88;5122566;28;19946;-59
2022/03/15 06:00:24;;;;;;;;;;;;;;;6.00;100.00;98952.22;5121643;28;19945;-59
2022/03/15 06:02:50;;;;;;;;;;;;;;;5.97;100.00;98955.28;5122456;28;19935;-59
2022/03/15 06:05:17;;;;;;;;;;;;;;;5.85;100.00;98959.53;5124766;28;19928;-58
2022/03/15 06:07:45;;;;;;;;;;;;;;;5.94;100.00;98948.53;5125117;28;19934;-60
2022/03/15 06:10:12;;;;;;;;;;;;;;;5.89;100.00;98952.84;5112957;28;19947;-59
2022/03/15 06:12:38;;;;;;;;;;;;;;;6.03;100.00;98954.44;5120380;28;19958;-60
2022/03/15 06:15:05;;;;;;;;;;;;;;;6.17;100.00;98949.91;5124893;28;19951;-60
2022/03/15 06:17:31;;;;;;;;;;;;;;;6.28;100.00;98959.88;5125095;28;19924;-59
2022/03/15 06:19:58;;;;;;;;;;;;;;;6.19;100.00;98959.28;5122924;28;19958;-59
2022/03/15 06:22:25;;;;;;;;;;;;;;;6.15;100.00;98950.13;5121509;28;19935;-60
2022/03/15 06:24:55;;;;;;;;;;;;;;;6.29;100.00;98957.00;5122507;28;19925;-59
2022/03/15 06:27:21;;;;;;;;;;;;;;;6.36;100.00;98949.84;5124770;28;19931;-59
2022/03/15 06:29:48;;;;;;;;;;;;;;;6.35;100.00;98952.69;5124150;28;20004;-58
2022/03/15 06:32:15;;;;;;;;;;;;;;;6.38;100.00;98947.78;5121201;28;19956;-60
2022/03/15 06:34:42;;;;;;;;;;;;;;;6.13;100.00;98946.06;5120934;28;19947;-59
2022/03/15 06:37:08;;;;;;;;;;;;;;;6.08;100.00;98949.31;5124115;28;19924;-60
2022/03/15 06:39:35;;;;;;;;;;;;;;;6.20;100.00;98947.66;5106308;28;19920;-59
2022/03/15 06:42:11;;;;;;;;;;;;;;;6.37;100.00;98940.88;5124060;28;19924;-59
2022/03/15 06:44:42;;;;;;;;;;;;;;;6.36;100.00;98955.13;5125738;28;19924;-60
2022/03/15 06:47:09;;;;;;;;;;;;;;;6.44;100.00;98943.47;5124132;28;19924;-59
2022/03/15 06:49:35;;;;;;;;;;;;;;;6.35;100.00;98942.88;5124429;28;19951;-60
2022/03/15 06:52:02;;;;;;;;;;;;;;;6.19;100.00;98951.31;5122017;28;20059;-60
2022/03/15 06:54:28;;;;;;;;;;;;;;;6.21;100.00;98949.28;5120956;28;19924;-59
2022/03/15 06:56:56;;;;;;;;;;;;;;;6.03;100.00;98950.97;5122098;28;19993;-60
2022/03/15 06:59:23;;;;;;;;;;;;;;;6.13;100.00;98948.72;5124417;28;19967;-59
2022/03/15 07:01:50;;;;;;;;;;;;;;;6.27;100.00;98948.44;5123439;28;19981;-58
2022/03/15 07:04:17;;;;;;;;;;;;;;;6.30;100.00;98940.06;5120839;28;20146;-59
2022/03/15 07:06:43;;;;;;;;;;;;;;;6.16;100.00;98941.13;5120835;28;19947;-59
2022/03/15 07:09:10;;;;;;;;;;;;;;;6.28;100.00;98934.13;5111483;28;19961;-59
2022/03/15 07:11:36;;;;;;;;;;;;;;;6.39;100.00;98949.41;5112140;28;19958;-59
2022/03/15 07:14:03;;;;;;;;;;;;;;;6.40;100.00;98951.06;5128728;28;19956;-60
2022/03/15 07:16:31;;;;;;;;;;;;;;;6.33;100.00;98949.44;5120423;28;19928;-59
2022/03/15 07:18:57;;;;;;;;;;;;;;;6.27;100.00;98943.13;5122198;28;19960;-58
2022/03/15 07:21:24;;;;;;;;;;;;;;;6.18;100.00;98939.09;5123976;28;19986;-58
2022/03/15 07:23:50;;;;;;;;;;;;;;;6.15;100.00;98930.75;5123209;28;19970;-58
2022/03/15 07:26:17;;;;;;;;;;;;;;;6.19;100.00;98943.34;5120326;28;20807;-58
2022/03/15 07:28:43;;;;;;;;;;;;;;;6.27;100.00;98939.66;5120318;28;19946;-59
2022/03/15 07:31:09;;;;;;;;;;;;;;;6.40;100.00;98936.97;5123534;28;19946;-60
2022/03/15 07:33:37;;;;;;;;;;;;;;;6.49;100.00;98939.16;5123762;28;20504;-59
2022/03/15 07:36:04;;;;;;;;;;;;;;;6.44;100.00;98940.81;5120736;28;19920;-59
2022/03/15 07:38:32;;;;;;;;;;;;;;;6.46;100.00;98941.44;5120154;28;19945;-59
2022/03/15 07:41:01;;;;;;;;;;;;;;;6.45;100.00;98935.31;5121517;28;19954;-59
2022/03/15 07:43:27;;;;;;;;;;;;;;;6.68;100.00;98941.94;5131941;28;19924;-59
2022/03/15 07:45:54;;;;;;;;;;;;;;;6.59;100.00;98935.25;5122136;28;19924;-59
2022/03/15 07:48:20;;;;;;;;;;;;;;;6.61;100.00;98926.03;5120021;28;19928;-59
2022/03/15 07:50:49;;;;;;;;;;;;;;;6.60;100.00;98918.28;5120236;28;19952;-59
2022/03/15 07:53:15;;;;;;;;;;;;;;;6.53;100.00;98923.59;5123213;28;20023;-61
2022/03/15 07:55:41;;;;;;;;;;;;;;;6.65;100.00;98921.94;5123333;28;19935;-59
2022/03/15 07:58:08;;;;;;;;;;;;;;;6.69;100.00;98930.25;5119982;28;19935;-59
2022/03/15 08:00:34;;;;;;;;;;;;;;;6.85;100.00;98930.59;5119609;28;20034;-60
2022/03/15 08:03:01;;;;;;;;;;;;;;;6.86;100.00;98928.75;5121672;28;20529;-58
2022/03/15 08:05:28;;;;;;;;;;;;;;;6.87;100.00;98930.38;5123274;28;19999;-58
2022/03/15 08:07:56;;;;;;;;;;;;;;;7.04;100.00;98926.97;5121634;28;19935;-59
2022/03/15 08:10:23;;;;;;;;;;;;;;;7.28;100.00;98924.53;5101472;28;19924;-60
2022/03/15 08:12:49;;;;;;;;;;;;;;;7.38;100.00;98933.66;5110222;28;19927;-60
2022/03/15 08:15:15;;;;;;;;;;;;;;;7.32;100.00;98929.22;5123055;28;19999;-59
2022/03/15 08:17:42;;;;;;;;;;;;;;;7.35;100.00;98918.16;5123055;28;19987;-60
2022/03/15 08:20:09;;;;;;;;;;;;;;;7.34;100.00;98916.53;5118572;28;19924;-60
2022/03/15 08:22:35;;;;;;;;;;;;;;;7.25;100.00;98911.69;5119300;28;19935;-59
2022/03/15 08:25:03;;;;;;;;;;;;;;;7.30;100.00;98918.00;5121642;28;19924;-59
2022/03/15 08:27:31;;;;;;;;;;;;;;;7.35;100.00;98923.47;5123017;28;19924;-59
2022/03/15 08:29:57;;;;;;;;;;;;;;;7.54;100.00;98921.66;5120893;28;20624;-58
2022/03/15 08:32:24;;;;;;;;;;;;;;;7.59;100.00;98917.31;5119301;28;19925;-60
2022/03/15 08:34:50;;;;;;;;;;;;;;;7.62;100.00;98916.06;5120070;28;19968;-59
2022/03/15 08:37:17;;;;;;;;;;;;;;;7.66;100.00;98908.47;5122808;28;19977;-59
2022/03/15 08:39:43;;;;;;;;;;;;;;;7.44;100.00;98906.22;5122900;28;19959;-60
2022/03/15 08:42:11;;;;;;;;;;;;;;;7.67;100.00;98908.25;5122510;28;19927;-59
2022/03/15 08:44:38;;;;;;;;;;;;;;;7.83;100.00;98897.03;5123584;28;19930;-59
2022/03/15 08:47:04;;;;;;;;;;;;;;;7.68;100.00;98885.94;5121496;28;19966;-60
2022/03/15 08:49:30;;;;;;;;;;;;;;;7.83;100.00;98888.25;5104333;28;19995;-59
2022/03/15 08:51:57;;;;;;;;;;;;;;;7.97;100.00;98881.75;5120809;28;19947;-60
2022/03/15 08:54:25;;;;;;;;;;;;;;;8.02;100.00;98880.03;5119096;28;19992;-59
2022/03/15 08:56:52;;;;;;;;;;;;;;;8.13;100.00;98879.31;5119932;28;19928;-60
2022/03/15 08:59:20;;;;;;;;;;;;;;;8.27;100.00;98879.13;5122369;28;19969;-59
2022/03/15 09:01:47;;;;;;;;;;;;;;;8.44;100.00;98886.31;5122133;28;19958;-59
2022/03/15 09:04:13;;;;;;;;;;;;;;;8.51;100.00;98884.34;5118852;28;19928;-59
2022/03/15 09:06:40;;;;;;;;;;;;;;;8.41;100.00;98889.41;5118426;28;19932;-59
2022/03/15 09:09:06;;;;;;;;;;;;;;;8.57;100.00;98896.75;5121324;28;19935;-60
2022/03/15 09:11:33;;;;;;;;;;;;;;;8.56;100.00;98881.84;5122111;28;19955;-60
2022/03/15 09:14:00;;;;;;;;;;;;;;;8.58;100.00;98887.75;5110385;28;19945;-60
2022/03/15 09:16:28;;;;;;;;;;;;;;;8.68;100.00;98882.69;5118592;28;20022;-61
2022/03/15 09:18:54;;;;;;;;;;;;;;;8.77;100.00;98877.84;5119643;28;20030;-59
2022/03/15 09:21:21;;;;;;;;;;;;;;;8.92;100.00;98877.41;5121990;28;19924;-60
2022/03/15 09:23:47;;;;;;;;;;;;;;;9.12;100.00;98867.25;5121888;28;19983;-61
2022/03/15 09:26:13;;;;;;;;;;;;;;;9.24;100.00;98873.41;5118611;28;20007;-60
2022/03/15 09:28:41;;;;;;;;;;;;;;;9.32;100.00;98872.25;5118473;28;19928;-60
2022/03/15 09:31:07;;;;;;;;;;;;;;;9.30;100.00;98874.34;5121720;28;19924;-60
2022/03/15 09:33:35;;;;;;;;;;;;;;;9.17;100.00;98864.72;5126241;28;19962;-60
2022/03/15 09:36:04;;;;;;;;;;;;;;;8.84;100.00;98872.41;5123709;28;20000;-59
2022/03/15 09:38:30;;;;;;;;;;;;;;;9.08;100.00;98860.75;5122567;28;20304;-59
2022/03/15 09:40:57;;;;;;;;;;;;;;;9.41;100.00;98850.34;5123765;28;19940;-60
2022/03/15 09:43:24;;;;;;;;;;;;;;;9.54;100.00;98839.44;5134357;28;19982;-59
2022/03/15 09:45:51;;;;;;;;;;;;;;;9.56;100.00;98834.66;5124903;28;19955;-60
2022/03/15 09:48:19;;;;;;;;;;;;;;;9.40;100.00;98840.75;5121932;28;20480;-59
2022/03/15 09:50:48;;;;;;;;;;;;;;;9.52;100.00;98841.53;5121996;28;20404;-60
2022/03/15 09:53:15;;;;;;;;;;;;;;;9.61;100.00;98842.81;5125593;28;19949;-59
2022/03/15 09:55:45;;;;;;;;;;;;;;;9.62;100.00;98833.75;5125545;28;19948;-59
2022/03/15 09:58:12;;;;;;;;;;;;;;;9.53;100.00;98837.81;5121874;28;19924;-59
2022/03/15 10:00:38;;;;;;;;;;;;;;;9.63;100.00;98839.88;5121805;28;19985;-59
2022/03/15 10:03:05;;;;;;;;;;;;;;;9.75;100.00;98840.69;5124429;28;19924;-59
2022/03/15 10:05:31;;;;;;;;;;;;;;;9.86;100.00;98841.72;5125026;28;19924;-61
2022/03/15 10:07:59;;;;;;;;;;;;;;;9.94;100.00;98838.66;5123483;28;19951;-60
2022/03/15 10:10:26;;;;;;;;;;;;;;;9.96;100.00;98834.75;5121700;28;19920;-60
2022/03/15 10:12:52;;;;;;;;;;;;;;;10.02;100.00;98827.63;5131036;28;19950;-60
2022/03/15 10:15:21;;;;;;;;;;;;;;;10.05;100.00;98830.66;5125262;28;19934;-61
2022/03/15 10:17:48;;;;;;;;;;;;;;;10.08;100.00;98819.50;5124893;28;19934;-60
2022/03/15 10:20:17;;;;;;;;;;;;;;;10.08;100.00;98824.03;5103570;28;19923;-59
2022/03/15 10:22:53;;;;;;;;;;;;;;;10.09;100.00;98813.09;5121517;28;19931;-60
2022/03/15 10:25:22;;;;;;;;;;;;;;;10.20;100.00;98808.81;5121332;28;19931;-59
2022/03/15 10:27:52;;;;;;;;;;;;;;;10.21;100.00;98818.44;5121924;28;20003;-60
2022/03/15 10:30:19;;;;;;;;;;;;;;;10.29;100.00;98815.38;5124745;28;19924;-60
2022/03/15 10:32:46;;;;;;;;;;;;;;;10.15;100.00;98809.50;5124474;28;19926;-59
2022/03/15 10:35:13;;;;;;;;;;;;;;;10.33;100.00;98789.00;5121100;28;19954;-60
2022/03/15 10:37:41;;;;;;;;;;;;;;;10.33;100.00;98794.34;5121108;28;19948;-59
2022/03/15 10:40:07;;;;;;;;;;;;;;;10.47;100.00;98801.81;5124183;28;19954;-61
2022/03/15 10:42:40;;;;;;;;;;;;;;;10.52;100.00;98801.13;5124109;28;19947;-61
2022/03/15 10:45:14;;;;;;;;;;;;;;;10.24;100.00;98796.59;5121246;28;19923;-61
2022/03/15 10:47:47;;;;;;;;;;;;;;;9.89;100.00;98796.69;5120935;28;19920;-60
2022/03/15 10:50:13;;;;;;;;;;;;;;;10.15;100.00;98798.03;5112316;28;19938;-61
2022/03/15 10:52:41;;;;;;;;;;;;;;;10.47;100.00;98790.31;5112433;28;19955;-61
2022/03/15 10:55:11;;;;;;;;;;;;;;;10.49;100.00;98789.03;5112359;28;19924;-61
2022/03/15 10:57:45;;;;;;;;;;;;;;;10.55;100.00;98785.38;5112272;28;19925;-61
2022/03/15 11:00:12;;;;;;;;;;;;;;;10.62;100.00;98771.88;5120577;28;19924;-60
2022/03/15 11:02:41;;;;;;;;;;;;;;;10.67;100.00;98767.47;5120751;28;19928;-61
2022/03/15 11:05:08;;;;;;;;;;;;;;;10.40;100.00;98761.09;5123606;28;19983;-61
2022/03/15 11:07:38;;;;;;;;;;;;;;;10.61;100.00;98765.75;5124090;28;19955;-60
2022/03/15 11:10:09;;;;;;;;;;;;;;;10.75;100.00;98761.69;5121051;28;19923;-61
2022/03/15 11:12:35;;;;;;;;;;;;;;;10.89;100.00;98750.69;5127337;28;19924;-61
2022/03/15 11:15:03;;;;;;;;;;;;;;;10.89;100.00;98746.16;5121541;28;19924;-60
2022/03/15 11:17:32;;;;;;;;;;;;;;;10.96;100.00;98745.97;5120197;28;19931;-60
2022/03/15 11:20:00;;;;;;;;;;;;;;;11.02;100.00;98734.28;5121972;28;19924;-59
2022/03/15 11:22:27;;;;;;;;;;;;;;;11.16;100.00;98735.56;5123814;28;19924;-59
2022/03/15 11:25:00;;;;;;;;;;;;;;;10.98;100.00;98733.19;5122836;28;19953;-60
2022/03/15 11:27:31;;;;;;;;;;;;;;;10.89;100.00;98726.63;5120608;28;19953;-60
2022/03/15 11:30:02;;;;;;;;;;;;;;;11.03;100.00;98730.56;5121874;28;19988;-61
2022/03/15 11:32:31;;;;;;;;;;;;;;;10.91;100.00;98728.00;5123601;28;19924;-60
2022/03/15 11:34:59;;;;;;;;;;;;;;;11.08;100.00;98714.63;5121698;28;19931;-60
2022/03/15 11:37:25;;;;;;;;;;;;;;;11.23;100.00;98698.78;5119941;28;19920;-60
2022/03/15 11:39:53;;;;;;;;;;;;;;;11.35;100.00;98707.50;5120797;28;19994;-61
2022/03/15 11:42:19;;;;;;;;;;;;;;;11.50;100.00;98688.97;5123020;28;19955;-60
2022/03/15 11:44:54;;;;;;;;;;;;;;;11.58;99.71;98690.38;5123248;28;19924;-61
2022/03/15 11:47:28;;;;;;;;;;;;;;;11.54;98.54;98673.22;5119928;28;20689;-59
2022/03/15 11:49:59;;;;;;;;;;;;;;;11.41;97.83;98670.91;5120836;28;19935;-60
2022/03/15 11:52:32;;;;;;;;;;;;;;;11.32;100.00;98665.22;5123046;28;19924;-61
2022/03/15 11:55:03;;;;;;;;;;;;;;;11.32;99.08;98657.19;5121088;28;20019;-60
2022/03/15 11:57:31;;;;;;;;;;;;;;;11.27;98.98;98662.44;5119352;28;19924;-60
2022/03/15 11:59:57;;;;;;;;;;;;;;;11.37;98.95;98663.41;5121100;28;20524;-59
2022/03/15 12:02:28;;;;;;;;;;;;;;;11.18;99.32;98656.75;5123162;28;20065;-60
2022/03/15 12:04:55;;;;;;;;;;;;;;;11.21;99.49;98645.53;5121843;28;19964;-60
2022/03/15 12:07:42;;;;;;;;;;;;;;;11.23;98.48;98650.66;5119655;28;20510;-61
2022/03/15 12:10:09;;;;;;;;;;;;;;;11.28;99.12;98642.69;5122748;28;19920;-60
2022/03/15 12:12:35;;;;;;;;;;;;;;;11.58;95.63;98637.69;5123141;28;19926;-60
2022/03/15 12:15:12;;;;;;;;;;;;;;;11.47;95.10;98619.91;5120486;28;19930;-60
2022/03/15 12:17:39;;;;;;;;;;;;;;;11.48;95.95;98621.50;5119416;28;19920;-60
2022/03/15 12:20:16;;;;;;;;;;;;;;;11.55;95.33;98626.66;5122128;28;19969;-60
2022/03/15 12:22:47;;;;;;;;;;;;;;;11.73;93.89;98613.78;5122858;28;19928;-59
2022/03/15 12:25:14;;;;;;;;;;;;;;;11.69;94.17;98609.97;5119107;28;19924;-60
2022/03/15 12:27:41;;;;;;;;;;;;;;;11.60;94.09;98606.16;5119308;28;19924;-61
2022/03/15 12:30:08;;;;;;;;;;;;;;;11.64;95.06;98603.75;5121970;28;19924;-60
2022/03/15 12:32:35;;;;;;;;;;;;;;;11.57;96.03;98603.16;5122835;28;19928;-60
2022/03/15 12:35:01;;;;;;;;;;;;;;;11.60;96.14;98595.44;5120022;28;19920;-59
2022/03/15 12:37:30;;;;;;;;;;;;;;;11.45;97.03;98587.25;5100965;28;19958;-60
2022/03/15 12:39:58;;;;;;;;;;;;;;;11.41;97.89;98583.47;5120634;28;19985;-61
2022/03/15 12:42:25;;;;;;;;;;;;;;;11.36;98.23;98578.88;5122481;28;20019;-60
2022/03/15 12:44:52;;;;;;;;;;;;;;;11.45;98.17;98568.53;5121779;28;19938;-60
2022/03/15 12:47:20;;;;;;;;;;;;;;;11.62;97.30;98571.09;5119116;28;19924;-60
2022/03/15 12:50:05;;;;;;;;;;;;;;;11.66;96.16;98553.50;5119097;28;19948;-60
2022/03/15 12:52:37;;;;;;;;;;;;;;;11.69;95.69;98559.16;5122785;28;19923;-60
2022/03/15 12:55:05;;;;;;;;;;;;;;;11.68;95.48;98554.84;5101764;28;20808;-60
2022/03/15 12:57:32;;;;;;;;;;;;;;;11.60;95.74;98552.66;5118740;28;20035;-60